Time;durP1;ratioP1;P1;durP2;ratioP2;P2;SDS_P1;SDS_P2;PMS_P1;PMS_P2;Temp;Humidity;BMP_temperature;BMP_pressure;BME280_temperature;BME280_humidity;BME280_pressure;Samples;Min_cycle;Max_cycle;Signal;HPM_P1;HPM_P2
2022/11/29 00:01:47;;;;;;;162.85;16.83;;;;;;;;;;5045885;28;20056;-81
2022/11/29 00:04:13;;;;;;;244.77;18.42;;;;;;;;;;5065509;28;20066;-82
2022/11/29 00:06:39;;;;;;;163.23;15.50;;;;;;;;;;5058259;28;20085;-81
2022/11/29 00:09:06;;;;;;;311.92;21.45;;;;;;;;;;5058340;28;20045;-81
2022/11/29 00:14:19;;;;;;;278.70;20.30;;;;;;;;;;5065432;28;20044;-81
2022/11/29 00:16:49;;;;;;;247.35;19.00;;;;;;;;;;5051274;28;20076;-80
2022/11/29 00:19:16;;;;;;;157.00;16.80;;;;;;;;;;5064625;28;20151;-81
2022/11/29 00:21:42;;;;;;;275.40;19.70;;;;;;;;;;5057019;28;20044;-81
2022/11/29 00:24:09;;;;;;;261.15;19.55;;;;;;;;;;5060496;28;20045;-81
2022/11/29 00:26:36;;;;;;;273.90;19.95;;;;;;;;;;5068441;28;20036;-81
2022/11/29 00:29:02;;;;;;;285.98;19.52;;;;;;;;;;5038447;28;20127;-81
2022/11/29 00:31:30;;;;;;;246.13;18.85;;;;;;;;;;5070878;28;20043;-81
2022/11/29 00:33:56;;;;;;;197.10;17.35;;;;;;;;;;5068668;28;20037;-81
2022/11/29 00:36:23;;;;;;;231.75;18.60;;;;;;;;;;5061281;28;20041;-81
2022/11/29 00:38:49;;;;;;;280.02;19.60;;;;;;;;;;5066806;28;20036;-82
2022/11/29 00:41:15;;;;;;;273.75;19.33;;;;;;;;;;5054333;28;20048;-81
2022/11/29 00:43:42;;;;;;;271.40;18.98;;;;;;;;;;5070669;28;20049;-81
2022/11/29 00:46:09;;;;;;;293.15;19.38;;;;;;;;;;5081908;28;20185;-81
2022/11/29 00:48:35;;;;;;;210.60;16.75;;;;;;;;;;5051074;28;20053;-81
2022/11/29 00:51:02;;;;;;;261.85;18.92;;;;;;;;;;5052098;28;20094;-81
2022/11/29 00:53:28;;;;;;;229.98;17.50;;;;;;;;;;5061387;28;20063;-81
2022/11/29 00:55:54;;;;;;;338.77;19.92;;;;;;;;;;5056919;28;20041;-81
2022/11/29 00:58:21;;;;;;;225.27;17.25;;;;;;;;;;5062812;28;20106;-81
2022/11/29 01:00:47;;;;;;;282.30;18.70;;;;;;;;;;5065255;28;20101;-81
2022/11/29 01:03:13;;;;;;;286.15;18.50;;;;;;;;;;5070821;28;20040;-81
2022/11/29 01:05:41;;;;;;;365.13;21.58;;;;;;;;;;5054131;28;20044;-81
2022/11/29 01:08:07;;;;;;;284.58;18.58;;;;;;;;;;5040720;28;20047;-81
2022/11/29 01:10:34;;;;;;;256.05;17.75;;;;;;;;;;5074335;28;20041;-81
2022/11/29 01:13:00;;;;;;;259.77;17.50;;;;;;;;;;5074803;28;20489;-80
2022/11/29 01:15:26;;;;;;;262.88;18.15;;;;;;;;;;5049208;28;20114;-81
2022/11/29 01:17:52;;;;;;;332.27;19.92;;;;;;;;;;5053363;28;20607;-81
2022/11/29 01:20:18;;;;;;;278.30;18.65;;;;;;;;;;5074892;28;20059;-81
2022/11/29 01:22:44;;;;;;;294.92;19.20;;;;;;;;;;5057669;28;20128;-81
2022/11/29 01:25:11;;;;;;;234.70;17.30;;;;;;;;;;5075637;28;20082;-81
2022/11/29 01:27:37;;;;;;;273.02;18.17;;;;;;;;;;5057900;28;20048;-81
2022/11/29 01:30:04;;;;;;;229.13;17.25;;;;;;;;;;5074300;28;20029;-81
2022/11/29 01:32:30;;;;;;;158.35;13.80;;;;;;;;;;5074216;28;20086;-81
2022/11/29 01:34:56;;;;;;;276.67;18.38;;;;;;;;;;5062000;28;20051;-81
2022/11/29 01:37:23;;;;;;;292.13;18.65;;;;;;;;;;5069737;28;20033;-80
2022/11/29 01:39:49;;;;;;;242.30;16.83;;;;;;;;;;5031110;28;20166;-80
2022/11/29 01:42:15;;;;;;;192.05;14.30;;;;;;;;;;5071674;28;20060;-80
2022/11/29 01:44:44;;;;;;;291.33;18.15;;;;;;;;;;5062187;28;20045;-81
2022/11/29 01:47:11;;;;;;;273.08;17.75;;;;;;;;;;5074305;28;20393;-81
2022/11/29 01:49:38;;;;;;;220.00;16.40;;;;;;;;;;5056915;28;20048;-80
2022/11/29 01:52:06;;;;;;;116.25;13.32;;;;;;;;;;5057345;28;20489;-81
2022/11/29 01:54:34;;;;;;;223.60;15.90;;;;;;;;;;5074141;28;20493;-81
2022/11/29 01:57:02;;;;;;;189.18;16.58;;;;;;;;;;5065704;28;20087;-81
2022/11/29 01:59:29;;;;;;;286.40;18.33;;;;;;;;;;5052271;28;20564;-81
2022/11/29 02:02:04;;;;;;;271.33;18.75;;;;;;;;;;5049997;28;20075;-81
2022/11/29 02:04:35;;;;;;;361.60;20.42;;;;;;;;;;5068021;28;20048;-81
2022/11/29 02:07:01;;;;;;;188.35;17.02;;;;;;;;;;5049910;28;20151;-81
2022/11/29 02:09:27;;;;;;;154.00;15.20;;;;;;;;;;5066957;28;20045;-81
2022/11/29 02:12:20;;;;;;;242.45;17.85;;;;;;;;;;5073280;28;20058;-81
2022/11/29 02:15:07;;;;;;;303.15;20.42;;;;;;;;;;5073285;28;20094;-81
2022/11/29 02:17:36;;;;;;;242.73;18.85;;;;;;;;;;5063380;28;20132;-81
2022/11/29 02:20:05;;;;;;;279.35;20.25;;;;;;;;;;5058729;28;20045;-81
2022/11/29 02:22:57;;;;;;;279.13;20.30;;;;;;;;;;5073501;28;20040;-81
2022/11/29 02:25:27;;;;;;;225.40;18.92;;;;;;;;;;5066426;28;20049;-81
2022/11/29 02:28:06;;;;;;;155.80;16.63;;;;;;;;;;5063829;28;20052;-81
2022/11/29 02:30:52;;;;;;;239.65;20.83;;;;;;;;;;5041341;28;20041;-81
2022/11/29 02:33:41;;;;;;;278.00;22.27;;;;;;;;;;5062980;28;20424;-80
2022/11/29 02:36:13;;;;;;;249.18;21.17;;;;;;;;;;5065646;28;20450;-81
2022/11/29 02:38:39;;;;;;;248.52;20.75;;;;;;;;;;5073232;28;20503;-81
2022/11/29 02:41:12;;;;;;;234.55;20.55;;;;;;;;;;5072983;28;20037;-81
2022/11/29 02:43:56;;;;;;;286.33;21.55;;;;;;;;;;5073008;28;20056;-81
2022/11/29 02:46:49;;;;;;;265.88;21.95;;;;;;;;;;5025804;28;20132;-81
2022/11/29 02:49:15;;;;;;;154.55;18.48;;;;;;;;;;5070120;28;20128;-80
2022/11/29 02:52:01;;;;;;;232.73;21.85;;;;;;;;;;5072463;28;20045;-81
2022/11/29 02:54:33;;;;;;;291.30;24.73;;;;;;;;;;5072563;28;20051;-81
2022/11/29 02:57:03;;;;;;;240.02;21.80;;;;;;;;;;5062476;28;20534;-81
2022/11/29 02:59:35;;;;;;;214.48;20.95;;;;;;;;;;5072863;28;20043;-81
2022/11/29 03:02:25;;;;;;;268.65;22.70;;;;;;;;;;5042443;28;20037;-81
2022/11/29 03:05:11;;;;;;;198.95;20.08;;;;;;;;;;5094993;28;20044;-81
2022/11/29 03:07:37;;;;;;;185.52;20.75;;;;;;;;;;5051763;28;20566;-81
2022/11/29 03:10:22;;;;;;;211.32;21.05;;;;;;;;;;5055407;28;20055;-81
2022/11/29 03:12:49;;;;;;;191.07;21.42;;;;;;;;;;5072014;28;20045;-81
2022/11/29 03:15:29;;;;;;;212.40;20.83;;;;;;;;;;5069884;28;20749;-81
2022/11/29 03:18:01;;;;;;;213.05;20.02;;;;;;;;;;5063941;28;20036;-81
2022/11/29 03:20:46;;;;;;;216.93;21.15;;;;;;;;;;5072114;28;20047;-81
2022/11/29 03:23:31;;;;;;;193.27;19.83;;;;;;;;;;5055529;28;20052;-81
2022/11/29 03:26:03;;;;;;;235.60;21.15;;;;;;;;;;5044355;28;20055;-81
2022/11/29 03:28:29;;;;;;;242.55;20.40;;;;;;;;;;5067212;28;20474;-81
2022/11/29 03:31:07;;;;;;;235.70;20.05;;;;;;;;;;5070196;28;20382;-81
2022/11/29 03:33:48;;;;;;;196.55;18.67;;;;;;;;;;5059053;28;20075;-81
2022/11/29 03:36:30;;;;;;;244.57;20.70;;;;;;;;;;5029204;28;20136;-81
2022/11/29 03:38:59;;;;;;;293.30;21.48;;;;;;;;;;5071268;28;20033;-81
2022/11/29 03:41:25;;;;;;;258.85;20.88;;;;;;;;;;5064052;28;20135;-82
2022/11/29 03:44:03;;;;;;;290.73;22.10;;;;;;;;;;5065232;28;20493;-82
2022/11/29 03:46:52;;;;;;;171.02;18.00;;;;;;;;;;5029661;28;20047;-81
2022/11/29 03:49:21;;;;;;;270.50;21.42;;;;;;;;;;5071425;28;20044;-81
2022/11/29 03:52:02;;;;;;;308.88;22.48;;;;;;;;;;5071404;28;20060;-81
2022/11/29 03:54:34;;;;;;;316.95;21.58;;;;;;;;;;5071616;28;20123;-81
2022/11/29 03:57:00;;;;;;;344.58;22.15;;;;;;;;;;5071711;28;20044;-81
2022/11/29 03:59:26;;;;;;;268.85;18.67;;;;;;;;;;5071515;28;20036;-81
2022/11/29 04:02:11;;;;;;;303.75;20.45;;;;;;;;;;5071745;28;20486;-81
2022/11/29 04:04:37;;;;;;;274.00;18.88;;;;;;;;;;5071239;28;20106;-80
2022/11/29 04:07:06;;;;;;;381.00;20.42;;;;;;;;;;5070778;28;20051;-81
2022/11/29 04:09:38;;;;;;;296.55;17.30;;;;;;;;;;5071132;28;20070;-81
2022/11/29 04:12:23;;;;;;;322.95;18.55;;;;;;;;;;5072387;28;20040;-81
2022/11/29 04:15:23;;;;;;;321.98;17.63;;;;;;;;;;5071268;28;20416;-81
2022/11/29 04:18:05;;;;;;;380.73;18.65;;;;;;;;;;5071175;28;20040;-80
2022/11/29 04:20:35;;;;;;;356.00;18.90;;;;;;;;;;5071285;28;20043;-80
2022/11/29 04:23:01;;;;;;;378.45;20.10;;;;;;;;;;5071038;28;20060;-81
2022/11/29 04:25:27;;;;;;;291.02;18.02;;;;;;;;;;5070930;28;20048;-81
2022/11/29 04:28:12;;;;;;;389.65;20.48;;;;;;;;;;5070878;28;20044;-81
2022/11/29 04:30:54;;;;;;;235.30;16.33;;;;;;;;;;5040108;28;20033;-81
2022/11/29 04:33:39;;;;;;;383.27;19.52;;;;;;;;;;5071048;28;20074;-81
2022/11/29 04:36:08;;;;;;;382.65;21.23;;;;;;;;;;5031485;28;20032;-81
2022/11/29 04:39:06;;;;;;;259.58;18.25;;;;;;;;;;5070809;28;20076;-81
2022/11/29 04:41:45;;;;;;;292.00;19.75;;;;;;;;;;5038164;28;20056;-81
2022/11/29 04:44:20;;;;;;;313.88;20.02;;;;;;;;;;5053778;28;20048;-81
2022/11/29 04:47:08;;;;;;;316.05;21.25;;;;;;;;;;5070935;28;20047;-81
2022/11/29 04:49:34;;;;;;;347.42;20.60;;;;;;;;;;5079471;28;20095;-81
2022/11/29 04:52:16;;;;;;;472.08;23.40;;;;;;;;;;5071611;28;20051;-81
2022/11/29 04:54:49;;;;;;;338.90;20.40;;;;;;;;;;5046429;28;20047;-80
2022/11/29 04:57:34;;;;;;;249.25;17.75;;;;;;;;;;5070483;28;20128;-81
2022/11/29 05:00:09;;;;;;;352.13;19.83;;;;;;;;;;5056418;28;20389;-81
2022/11/29 05:02:52;;;;;;;282.10;18.73;;;;;;;;;;5056659;28;20040;-80
2022/11/29 05:05:42;;;;;;;299.27;18.65;;;;;;;;;;5057186;28;20051;-80
2022/11/29 05:08:08;;;;;;;176.40;14.98;;;;;;;;;;5080672;28;20437;-80
2022/11/29 05:10:39;;;;;;;244.98;16.95;;;;;;;;;;5051878;28;20036;-81
2022/11/29 05:13:26;;;;;;;342.13;19.05;;;;;;;;;;5050117;28;20037;-80
2022/11/29 05:16:10;;;;;;;232.90;15.43;;;;;;;;;;5020444;28;20045;-81
2022/11/29 05:18:36;;;;;;;354.10;19.95;;;;;;;;;;5082975;28;20091;-81
2022/11/29 05:21:17;;;;;;;374.35;18.88;;;;;;;;;;5050151;28;20048;-81
2022/11/29 05:23:57;;;;;;;319.77;18.17;;;;;;;;;;5050443;28;20401;-80
2022/11/29 05:26:29;;;;;;;307.48;17.58;;;;;;;;;;5050030;28;20064;-80
2022/11/29 05:29:13;;;;;;;251.73;16.52;;;;;;;;;;5050389;28;20045;-81
2022/11/29 05:31:55;;;;;;;234.70;15.55;;;;;;;;;;5050246;28;20044;-81
2022/11/29 05:34:21;;;;;;;290.80;16.95;;;;;;;;;;5050193;28;20067;-81
2022/11/29 05:37:06;;;;;;;250.13;17.08;;;;;;;;;;5050112;28;20134;-81
2022/11/29 05:39:32;;;;;;;308.52;16.92;;;;;;;;;;5050230;28;20120;-81
2022/11/29 05:42:04;;;;;;;191.68;13.50;;;;;;;;;;5033473;28;20057;-81
2022/11/29 05:44:37;;;;;;;213.15;14.23;;;;;;;;;;5033646;28;20049;-81
2022/11/29 05:47:04;;;;;;;127.30;12.15;;;;;;;;;;5050392;28;20049;-81
2022/11/29 05:49:40;;;;;;;239.10;14.93;;;;;;;;;;5050635;28;20068;-81
2022/11/29 05:52:31;;;;;;;227.38;14.85;;;;;;;;;;5033404;28;20490;-80
2022/11/29 05:55:05;;;;;;;195.50;14.07;;;;;;;;;;5057812;28;20047;-80
2022/11/29 05:57:43;;;;;;;107.38;11.48;;;;;;;;;;5075234;28;20036;-81
2022/11/29 06:00:11;;;;;;;256.92;15.75;;;;;;;;;;5073601;28;20040;-80
2022/11/29 06:02:43;;;;;;;152.52;12.93;;;;;;;;;;5073865;28;20087;-80
2022/11/29 06:05:28;;;;;;;217.88;15.05;;;;;;;;;;5074616;28;20127;-80
2022/11/29 06:07:57;;;;;;;158.93;14.10;;;;;;;;;;5073480;28;20048;-81
2022/11/29 06:10:25;;;;;;;110.53;11.95;;;;;;;;;;5073619;28;20512;-81
2022/11/29 06:13:02;;;;;;;187.07;15.18;;;;;;;;;;5060425;28;20045;-81
2022/11/29 06:15:32;;;;;;;188.98;14.48;;;;;;;;;;5044334;28;20052;-80
2022/11/29 06:17:58;;;;;;;187.68;14.63;;;;;;;;;;5073815;28;20493;-80
2022/11/29 06:20:43;;;;;;;162.35;12.75;;;;;;;;;;5057146;28;20508;-80
2022/11/29 06:23:09;;;;;;;177.40;14.23;;;;;;;;;;5073547;28;20041;-81
2022/11/29 06:26:08;;;;;;;177.00;13.13;;;;;;;;;;5074208;28;20512;-81
2022/11/29 06:28:34;;;;;;;150.55;12.38;;;;;;;;;;5039245;28;20056;-81
2022/11/29 06:31:00;;;;;;;174.43;14.32;;;;;;;;;;5075564;28;20055;-81
2022/11/29 06:33:42;;;;;;;116.20;11.43;;;;;;;;;;5074239;28;20137;-81
2022/11/29 06:36:11;;;;;;;213.77;14.52;;;;;;;;;;5083160;28;20124;-81
2022/11/29 06:38:37;;;;;;;165.82;14.00;;;;;;;;;;5075097;28;20501;-80
2022/11/29 06:41:03;;;;;;;202.38;13.75;;;;;;;;;;5073081;28;20044;-81
2022/11/29 06:43:33;;;;;;;161.13;13.02;;;;;;;;;;5056281;28;20123;-81
2022/11/29 06:46:15;;;;;;;193.45;13.70;;;;;;;;;;5079864;28;20036;-81
2022/11/29 06:49:04;;;;;;;139.57;11.98;;;;;;;;;;5056287;28;20538;-81
2022/11/29 06:51:30;;;;;;;82.20;10.48;;;;;;;;;;5034598;28;20044;-81
2022/11/29 06:54:15;;;;;;;100.05;11.43;;;;;;;;;;5072734;28;20072;-81
2022/11/29 06:56:44;;;;;;;68.68;9.90;;;;;;;;;;5072882;28;20485;-81
2022/11/29 06:59:29;;;;;;;69.20;10.80;;;;;;;;;;5072719;28;20037;-81
2022/11/29 07:02:11;;;;;;;66.68;10.50;;;;;;;;;;5080834;28;20044;-82
2022/11/29 07:04:40;;;;;;;96.80;11.40;;;;;;;;;;5073363;28;20041;-81
2022/11/29 07:07:13;;;;;;;124.13;12.75;;;;;;;;;;5071442;28;20507;-81
2022/11/29 07:09:39;;;;;;;104.80;11.63;;;;;;;;;;5072519;28;20397;-81
2022/11/29 07:12:06;;;;;;;93.90;11.50;;;;;;;;;;5072123;28;20033;-81
2022/11/29 07:14:32;;;;;;;97.43;12.45;;;;;;;;;;5055766;28;20416;-81
2022/11/29 07:16:58;;;;;;;57.55;10.40;;;;;;;;;;5067025;28;20037;-81
2022/11/29 07:19:30;;;;;;;61.95;11.15;;;;;;;;;;5047164;28;20036;-81
2022/11/29 07:22:16;;;;;;;49.38;10.70;;;;;;;;;;5089377;28;20386;-81
2022/11/29 07:24:56;;;;;;;63.63;10.87;;;;;;;;;;5073024;28;20048;-81
2022/11/29 07:27:48;;;;;;;93.57;11.68;;;;;;;;;;5062567;28;20308;-81
2022/11/29 07:30:15;;;;;;;72.47;11.18;;;;;;;;;;5066365;28;20052;-81
2022/11/29 07:32:47;;;;;;;83.22;11.82;;;;;;;;;;5055265;28;20036;-82
2022/11/29 07:35:24;;;;;;;80.97;11.95;;;;;;;;;;5071063;28;20456;-81
2022/11/29 07:38:01;;;;;;;51.75;11.20;;;;;;;;;;5052431;28;20037;-81
2022/11/29 07:40:31;;;;;;;62.65;11.18;;;;;;;;;;5054647;28;20072;-81
2022/11/29 07:43:03;;;;;;;59.75;11.65;;;;;;;;;;5072926;28;20064;-81
2022/11/29 07:45:31;;;;;;;61.47;11.38;;;;;;;;;;5054964;28;20076;-82
2022/11/29 07:47:57;;;;;;;74.03;11.93;;;;;;;;;;5072047;28;20094;-81
2022/11/29 07:50:24;;;;;;;91.25;12.98;;;;;;;;;;5071525;28;20482;-81
2022/11/29 07:52:50;;;;;;;79.50;12.30;;;;;;;;;;5058504;28;20048;-81
2022/11/29 07:55:17;;;;;;;85.60;12.15;;;;;;;;;;5069184;28;20044;-82
2022/11/29 07:57:44;;;;;;;97.32;12.73;;;;;;;;;;5072489;28;20044;-81
2022/11/29 08:00:10;;;;;;;78.45;12.07;;;;;;;;;;5055433;28;20381;-82
2022/11/29 08:02:36;;;;;;;80.20;12.25;;;;;;;;;;5058275;28;20041;-82
2022/11/29 08:05:03;;;;;;;109.47;12.48;;;;;;;;;;5070587;28;20040;-82
2022/11/29 08:07:29;;;;;;;124.50;13.30;;;;;;;;;;5071270;28;20055;-82
2022/11/29 08:09:55;;;;;;;118.22;13.80;;;;;;;;;;5055123;28;20440;-82
2022/11/29 08:12:21;;;;;;;126.68;13.70;;;;;;;;;;5071394;28;20045;-82
2022/11/29 08:14:47;;;;;;;121.97;12.20;;;;;;;;;;5070495;28;20048;-82
2022/11/29 08:17:13;;;;;;;152.60;13.18;;;;;;;;;;5034526;28;20033;-82
2022/11/29 08:19:39;;;;;;;151.45;12.75;;;;;;;;;;5065199;28;20564;-82
2022/11/29 08:22:05;;;;;;;156.65;13.65;;;;;;;;;;5054866;28;20404;-82
2022/11/29 08:24:32;;;;;;;119.45;11.27;;;;;;;;;;5050794;28;20041;-81
2022/11/29 08:26:58;;;;;;;119.40;11.50;;;;;;;;;;5044346;28;20146;-82
2022/11/29 08:29:24;;;;;;;136.55;11.18;;;;;;;;;;5034834;28;20067;-82
2022/11/29 08:31:52;;;;;;;123.10;11.57;;;;;;;;;;5066581;28;20070;-82
2022/11/29 08:34:18;;;;;;;152.18;11.50;;;;;;;;;;5069827;28;20044;-82
2022/11/29 08:36:45;;;;;;;97.53;10.70;;;;;;;;;;5070830;28;20059;-81
2022/11/29 08:39:11;;;;;;;106.90;11.35;;;;;;;;;;5071516;28;20036;-82
2022/11/29 08:41:37;;;;;;;108.00;10.52;;;;;;;;;;5071008;28;20390;-81
2022/11/29 08:44:07;;;;;;;64.72;8.70;;;;;;;;;;5070937;28;20080;-81
2022/11/29 08:49:18;;;;;;;82.57;9.88;;;;;;;;;;5069694;28;20053;-82
2022/11/29 08:51:44;;;;;;;44.08;9.35;;;;;;;;;;5050745;28;20059;-82
2022/11/29 08:54:10;;;;;;;28.05;9.13;;;;;;;;;;5081650;28;20040;-82
2022/11/29 08:56:37;;;;;;;27.15;8.93;;;;;;;;;;5065142;28;20065;-82
2022/11/29 08:59:03;;;;;;;26.88;9.27;;;;;;;;;;5043625;28;20045;-82
2022/11/29 09:01:30;;;;;;;38.85;9.70;;;;;;;;;;5068925;28;20044;-82
2022/11/29 09:04:01;;;;;;;29.10;9.27;;;;;;;;;;5071445;28;20044;-81
2022/11/29 09:06:37;;;;;;;33.88;9.13;;;;;;;;;;5056973;28;20053;-81
2022/11/29 09:09:03;;;;;;;;;;;;;;;;;;5061665;28;20498;-82
2022/11/29 09:11:29;;;;;;;26.17;8.95;;;;;;;;;;5067114;28;19971;-82
2022/11/29 09:13:57;;;;;;;26.70;8.18;;;;;;;;;;5071329;28;20028;-82
2022/11/29 09:16:24;;;;;;;26.33;8.73;;;;;;;;;;5056947;28;20402;-82
2022/11/29 09:18:53;;;;;;;28.40;8.15;;;;;;;;;;5054252;28;20324;-81
2022/11/29 09:21:19;;;;;;;29.23;8.70;;;;;;;;;;5072138;28;20119;-82
2022/11/29 09:23:45;;;;;;;24.00;7.78;;;;;;;;;;5054055;28;20123;-82
2022/11/29 09:26:16;;;;;;;24.10;8.18;;;;;;;;;;5060269;28;20083;-81
2022/11/29 09:28:42;;;;;;;32.47;7.88;;;;;;;;;;5039629;28;20084;-81
2022/11/29 09:31:09;;;;;;;27.00;7.85;;;;;;;;;;5068749;28;20048;-81
2022/11/29 09:33:35;;;;;;;25.48;8.32;;;;;;;;;;5061856;28;20052;-81
2022/11/29 09:36:02;;;;;;;23.85;8.25;;;;;;;;;;5056593;28;20082;-81
2022/11/29 09:38:29;;;;;;;26.38;7.78;;;;;;;;;;5074627;28;20047;-81
2022/11/29 09:40:56;;;;;;;20.90;7.78;;;;;;;;;;5060556;28;20452;-81
2022/11/29 09:43:28;;;;;;;28.55;8.90;;;;;;;;;;5071633;28;20493;-81
2022/11/29 09:46:16;;;;;;;24.60;7.88;;;;;;;;;;5064777;28;20056;-82
2022/11/29 09:48:55;;;;;;;24.45;8.90;;;;;;;;;;5060225;28;20040;-81
2022/11/29 09:51:29;;;;;;;25.88;8.10;;;;;;;;;;5074634;28;20524;-82
2022/11/29 09:54:15;;;;;;;22.73;8.15;;;;;;;;;;5060265;28;20199;-82
2022/11/29 09:56:43;;;;;;;28.67;9.10;;;;;;;;;;5074016;28;20045;-82
2022/11/29 09:59:20;;;;;;;25.38;8.70;;;;;;;;;;5075385;28;20036;-82
2022/11/29 10:01:50;;;;;;;24.13;8.85;;;;;;;;;;5063278;28;20485;-82
2022/11/29 10:04:21;;;;;;;26.25;8.70;;;;;;;;;;5057411;28;20094;-82
2022/11/29 10:06:56;;;;;;;26.65;9.35;;;;;;;;;;5073624;28;20052;-82
2022/11/29 10:09:26;;;;;;;24.10;8.40;;;;;;;;;;5074456;28;20500;-82
2022/11/29 10:11:55;;;;;;;24.70;8.88;;;;;;;;;;5073501;28;20056;-82
2022/11/29 10:14:24;;;;;;;28.77;9.27;;;;;;;;;;5074114;28;20040;-82
2022/11/29 10:16:50;;;;;;;29.10;9.70;;;;;;;;;;5068874;28;20044;-82
2022/11/29 10:19:19;;;;;;;27.70;9.63;;;;;;;;;;5064062;28;20059;-82
2022/11/29 10:21:50;;;;;;;24.17;9.27;;;;;;;;;;5056789;28;20044;-81
2022/11/29 10:24:19;;;;;;;27.80;9.65;;;;;;;;;;5074021;28;20496;-81
2022/11/29 10:26:45;;;;;;;28.42;10.07;;;;;;;;;;5073256;28;20048;-82
2022/11/29 10:29:15;;;;;;;29.77;9.93;;;;;;;;;;5057152;28;20581;-81
2022/11/29 10:31:43;;;;;;;25.65;9.85;;;;;;;;;;5073234;28;20072;-82
2022/11/29 10:34:17;;;;;;;26.10;10.18;;;;;;;;;;5069641;28;20044;-82
2022/11/29 10:36:45;;;;;;;28.25;9.82;;;;;;;;;;5073252;28;20037;-82
2022/11/29 10:39:19;;;;;;;26.83;10.20;;;;;;;;;;5073433;28;20090;-82
2022/11/29 10:41:45;;;;;;;29.85;10.48;;;;;;;;;;5072899;28;20083;-82
2022/11/29 10:44:12;;;;;;;29.83;10.05;;;;;;;;;;5072993;28;20055;-82
2022/11/29 10:46:38;;;;;;;21.27;9.60;;;;;;;;;;5073310;28;20041;-81
2022/11/29 10:49:06;;;;;;;25.95;9.93;;;;;;;;;;5056312;28;20076;-82
2022/11/29 10:51:33;;;;;;;27.13;9.57;;;;;;;;;;5056667;28;20068;-82
2022/11/29 10:54:10;;;;;;;25.08;9.60;;;;;;;;;;5073071;28;20048;-82
2022/11/29 10:56:37;;;;;;;26.77;10.52;;;;;;;;;;5073302;28;20147;-82
2022/11/29 10:59:06;;;;;;;32.28;10.30;;;;;;;;;;5061165;28;20143;-82
2022/11/29 11:01:41;;;;;;;30.65;9.73;;;;;;;;;;5071491;28;20051;-82
2022/11/29 11:04:13;;;;;;;30.20;9.65;;;;;;;;;;5047978;28;20060;-82
2022/11/29 11:06:47;;;;;;;27.88;9.68;;;;;;;;;;5068517;28;20045;-82
2022/11/29 11:09:34;;;;;;;28.48;10.27;;;;;;;;;;5062659;28;20049;-82
2022/11/29 11:12:02;;;;;;;26.60;9.55;;;;;;;;;;5056426;28;20048;-82
2022/11/29 11:14:28;;;;;;;27.70;9.80;;;;;;;;;;5073106;28;20063;-82
2022/11/29 11:16:58;;;;;;;21.63;9.73;;;;;;;;;;5072939;28;20070;-82
2022/11/29 11:19:27;;;;;;;26.88;9.90;;;;;;;;;;5056131;28;20079;-82
2022/11/29 11:21:54;;;;;;;23.58;9.57;;;;;;;;;;5072634;28;20501;-82
2022/11/29 11:24:23;;;;;;;22.95;9.55;;;;;;;;;;5072710;28;20043;-82
2022/11/29 11:26:49;;;;;;;31.42;10.43;;;;;;;;;;5072380;28;20079;-82
2022/11/29 11:29:17;;;;;;;24.45;10.13;;;;;;;;;;5072713;28;20066;-82
2022/11/29 11:31:50;;;;;;;22.00;10.07;;;;;;;;;;5044056;28;20136;-82
2022/11/29 11:34:33;;;;;;;27.30;10.15;;;;;;;;;;5056938;28;20128;-81
2022/11/29 11:37:15;;;;;;;28.00;9.98;;;;;;;;;;5059274;28;20039;-82
2022/11/29 11:39:51;;;;;;;26.02;9.50;;;;;;;;;;5046555;28;20033;-82
2022/11/29 11:42:38;;;;;;;27.42;10.32;;;;;;;;;;5071498;28;20064;-82
2022/11/29 11:45:10;;;;;;;31.58;10.85;;;;;;;;;;5035301;28;20037;-82
2022/11/29 11:47:37;;;;;;;25.73;10.20;;;;;;;;;;5068490;28;20044;-82
2022/11/29 11:50:03;;;;;;;26.55;9.80;;;;;;;;;;5071812;28;20447;-82
2022/11/29 11:52:51;;;;;;;26.23;9.13;;;;;;;;;;5057442;28;20041;-82
2022/11/29 11:55:20;;;;;;;25.60;8.73;;;;;;;;;;5071861;28;20048;-82
2022/11/29 11:57:47;;;;;;;24.63;9.27;;;;;;;;;;5057927;28;20082;-82
2022/11/29 12:00:32;;;;;;;23.33;9.10;;;;;;;;;;5064317;28;20044;-81
2022/11/29 12:02:58;;;;;;;24.25;9.80;;;;;;;;;;5049035;28;20392;-82
2022/11/29 12:05:24;;;;;;;28.48;9.02;;;;;;;;;;5059772;28;20127;-82
2022/11/29 12:07:57;;;;;;;27.10;9.57;;;;;;;;;;5038801;28;20610;-82
2022/11/29 12:10:28;;;;;;;27.08;9.18;;;;;;;;;;5065825;28;20573;-82
2022/11/29 12:12:56;;;;;;;24.40;8.88;;;;;;;;;;5048707;28;20393;-82
2022/11/29 12:15:28;;;;;;;29.00;9.43;;;;;;;;;;5073003;28;20066;-82
2022/11/29 12:18:00;;;;;;;31.15;9.57;;;;;;;;;;5105076;28;20075;-82
2022/11/29 12:20:42;;;;;;;23.58;8.90;;;;;;;;;;5071972;28;20500;-82
2022/11/29 12:23:11;;;;;;;27.25;9.20;;;;;;;;;;5057090;28;20040;-82
2022/11/29 12:25:50;;;;;;;33.75;10.15;;;;;;;;;;5057962;28;20072;-82
2022/11/29 12:28:17;;;;;;;24.27;9.23;;;;;;;;;;5054686;28;20358;-82
2022/11/29 12:30:46;;;;;;;23.92;9.57;;;;;;;;;;5071378;28;20105;-82
2022/11/29 12:33:33;;;;;;;31.48;9.80;;;;;;;;;;5070984;28;20076;-82
2022/11/29 12:36:18;;;;;;;29.77;10.57;;;;;;;;;;5039205;28;20384;-80
2022/11/29 12:38:54;;;;;;;30.00;10.02;;;;;;;;;;5065243;28;20116;-80
2022/11/29 12:41:19;;;;;;;;;;;;;;;;;;5061484;28;20044;-81
2022/11/29 12:43:49;;;;;;;27.30;9.27;;;;;;;;;;5054884;28;20031;-82
2022/11/29 12:46:20;;;;;;;24.58;8.70;;;;;;;;;;5071342;28;20083;-83
2022/11/29 12:49:09;;;;;;;29.42;10.35;;;;;;;;;;5054705;28;20054;-80
2022/11/29 12:51:45;;;;;;;29.05;9.95;;;;;;;;;;5044876;28;20049;-81
2022/11/29 12:54:20;;;;;;;30.00;9.55;;;;;;;;;;5056732;28;20040;-81
2022/11/29 12:56:46;;;;;;;26.80;9.33;;;;;;;;;;5039509;28;20037;-81
2022/11/29 12:59:12;;;;;;;29.38;9.35;;;;;;;;;;5047491;28;20627;-81
2022/11/29 13:01:51;;;;;;;26.73;10.15;;;;;;;;;;5071513;28;20489;-81
2022/11/29 13:04:27;;;;;;;29.92;9.18;;;;;;;;;;5107623;28;20071;-81
2022/11/29 13:07:16;;;;;;;30.90;8.77;;;;;;;;;;5075223;28;20090;-82
2022/11/29 13:09:57;;;;;;;30.92;9.68;;;;;;;;;;5058060;28;20048;-82
2022/11/29 13:12:36;;;;;;;28.85;10.13;;;;;;;;;;5065329;28;20063;-81
2022/11/29 13:15:19;;;;;;;33.33;10.30;;;;;;;;;;5068818;28;20040;-81
2022/11/29 13:18:03;;;;;;;26.52;9.25;;;;;;;;;;5050432;28;20485;-81
2022/11/29 13:20:35;;;;;;;31.52;9.88;;;;;;;;;;5047848;28;20068;-81
2022/11/29 13:23:12;;;;;;;26.02;8.95;;;;;;;;;;5077169;28;20048;-80
2022/11/29 13:25:53;;;;;;;28.33;9.48;;;;;;;;;;5077559;28;20477;-81
2022/11/29 13:28:27;;;;;;;35.55;10.70;;;;;;;;;;5076946;28;20051;-81
2022/11/29 13:30:55;;;;;;;35.15;9.82;;;;;;;;;;5066968;28;20111;-81
2022/11/29 13:33:26;;;;;;;32.90;9.57;;;;;;;;;;5050429;28;20051;-82
2022/11/29 13:35:55;;;;;;;28.58;10.40;;;;;;;;;;5057156;28;20096;-81
2022/11/29 13:38:28;;;;;;;28.95;9.63;;;;;;;;;;5077362;28;20037;-81
2022/11/29 13:41:10;;;;;;;29.48;9.35;;;;;;;;;;5068947;28;20110;-81
2022/11/29 13:43:45;;;;;;;31.80;9.88;;;;;;;;;;5067820;28;20063;-81
2022/11/29 13:46:33;;;;;;;40.40;10.45;;;;;;;;;;5051640;28;20123;-81
2022/11/29 13:48:59;;;;;;;30.17;9.98;;;;;;;;;;5066061;28;20040;-81
2022/11/29 13:51:45;;;;;;;41.08;10.70;;;;;;;;;;5060386;28;20509;-81
2022/11/29 13:54:31;;;;;;;37.95;8.45;;;;;;;;;;5068905;28;20044;-81
2022/11/29 13:57:02;;;;;;;43.53;9.47;;;;;;;;;;5059607;28;20045;-81
2022/11/29 13:59:29;;;;;;;40.95;9.63;;;;;;;;;;5069375;28;20083;-81
2022/11/29 14:01:57;;;;;;;43.25;10.80;;;;;;;;;;5074654;28;20051;-81
2022/11/29 14:04:32;;;;;;;36.75;11.38;;;;;;;;;;5043863;28;20045;-82
2022/11/29 14:07:06;;;;;;;37.13;12.38;;;;;;;;;;5031594;28;20032;-81
2022/11/29 14:09:38;;;;;;;41.15;14.75;;;;;;;;;;5075847;28;20051;-80
2022/11/29 14:12:21;;;;;;;49.72;16.90;;;;;;;;;;5051027;28;20410;-80
2022/11/29 14:14:50;;;;;;;49.58;16.95;;;;;;;;;;5067776;28;20052;-80
2022/11/29 14:17:33;;;;;;;52.13;16.50;;;;;;;;;;5061633;28;20046;-81
2022/11/29 14:20:18;;;;;;;42.45;15.48;;;;;;;;;;5060163;28;20037;-81
2022/11/29 14:23:03;;;;;;;55.65;16.20;;;;;;;;;;5075097;28;20045;-81
2022/11/29 14:25:30;;;;;;;43.53;15.05;;;;;;;;;;5056791;28;20051;-81
2022/11/29 14:27:58;;;;;;;41.17;14.73;;;;;;;;;;5073666;28;20090;-81
2022/11/29 14:30:28;;;;;;;61.03;16.33;;;;;;;;;;5059220;28;20043;-81
2022/11/29 14:33:17;;;;;;;46.90;14.90;;;;;;;;;;5074580;28;20045;-81
2022/11/29 14:35:48;;;;;;;38.35;14.00;;;;;;;;;;5054391;28;20045;-81
2022/11/29 14:38:33;;;;;;;47.10;14.80;;;;;;;;;;5073598;28;20064;-81
2022/11/29 14:41:06;;;;;;;38.17;14.30;;;;;;;;;;5047672;28;20359;-81
2022/11/29 14:43:33;;;;;;;48.90;14.90;;;;;;;;;;5073913;28;20465;-81
2022/11/29 14:46:26;;;;;;;51.08;14.65;;;;;;;;;;5056613;28;20068;-81
2022/11/29 14:48:55;;;;;;;51.70;16.15;;;;;;;;;;5073076;28;20047;-81
2022/11/29 14:51:23;;;;;;;51.13;15.15;;;;;;;;;;5072673;28;20048;-81